createdAt,value
2019-06-26T00:00:13.786Z,17.35
2019-06-26T00:05:11.743Z,17.62
2019-06-26T00:07:41.087Z,20.68
2019-06-26T00:10:10.598Z,21.05
2019-06-26T00:12:40.119Z,20.97
2019-06-26T00:15:10.197Z,21.87
2019-06-26T00:17:39.857Z,21.48
2019-06-26T00:20:09.684Z,22.85
2019-06-26T00:22:39.044Z,25.20
2019-06-26T00:25:08.928Z,25.00
2019-06-26T00:27:38.335Z,26.10
2019-06-26T00:30:08.553Z,27.52
2019-06-26T00:32:37.919Z,26.90
2019-06-26T00:35:07.290Z,27.10
2019-06-26T00:37:36.910Z,30.08
2019-06-26T00:40:07.162Z,30.70
2019-06-26T00:42:36.525Z,34.18
2019-06-26T00:45:07.122Z,30.80
2019-06-26T00:47:36.734Z,29.30
2019-06-26T00:50:10.493Z,28.10
2019-06-26T00:52:40.147Z,31.85
2019-06-26T00:55:09.622Z,32.80
2019-06-26T00:57:38.975Z,34.23
2019-06-26T01:00:09.840Z,34.75
2019-06-26T01:02:40.596Z,34.13
2019-06-26T01:05:11.944Z,36.53
2019-06-26T01:07:41.600Z,34.73
2019-06-26T01:10:12.737Z,41.28
2019-06-26T01:12:42.160Z,38.88
2019-06-26T01:15:11.982Z,39.33
2019-06-26T01:17:41.327Z,40.23
2019-06-26T01:20:11.117Z,44.08
2019-06-26T01:22:40.734Z,42.08
2019-06-26T01:25:10.140Z,42.33
2019-06-26T01:27:39.725Z,45.63
2019-06-26T01:30:10.321Z,43.78
2019-06-26T01:32:39.915Z,43.50
2019-06-26T01:35:09.632Z,46.20
2019-06-26T01:37:39.225Z,43.75
2019-06-26T01:40:09.129Z,44.45
2019-06-26T01:42:38.563Z,45.00
2019-06-26T01:45:08.434Z,45.88
2019-06-26T01:47:37.952Z,45.63
2019-06-26T01:50:08.521Z,45.65
2019-06-26T01:52:37.870Z,43.95
2019-06-26T01:55:07.468Z,45.30
2019-06-26T01:57:37.781Z,45.33
2019-06-26T02:00:09.294Z,46.13
2019-06-26T02:02:38.740Z,47.00
2019-06-26T02:05:08.417Z,45.63
2019-06-26T02:07:37.946Z,48.98
2019-06-26T02:10:07.970Z,51.77
2019-06-26T02:12:38.675Z,50.12
2019-06-26T02:15:09.250Z,49.20
2019-06-26T02:17:38.589Z,50.65
2019-06-26T02:20:08.153Z,50.45
2019-06-26T02:22:37.499Z,50.55
2019-06-26T02:25:06.997Z,50.17
2019-06-26T02:27:36.417Z,50.33
2019-06-26T02:30:07.398Z,48.52
2019-06-26T02:32:36.838Z,45.33
2019-06-26T02:35:09.904Z,45.98
2019-06-26T02:37:38.631Z,47.53
2019-06-26T02:40:09.583Z,48.00
2019-06-26T02:42:39.201Z,46.90
2019-06-26T02:45:09.386Z,46.02
2019-06-26T02:47:39.024Z,44.33
2019-06-26T02:50:10.271Z,44.10
2019-06-26T02:52:39.706Z,46.68
2019-06-26T02:55:09.789Z,44.53
2019-06-26T02:57:39.163Z,43.58
2019-06-26T03:00:08.871Z,44.05
2019-06-26T03:02:38.394Z,43.52
2019-06-26T03:05:07.859Z,43.48
2019-06-26T03:07:37.430Z,43.60
2019-06-26T03:10:09.785Z,44.48
2019-06-26T03:12:39.362Z,43.33
2019-06-26T03:15:09.870Z,44.40
2019-06-26T03:17:54.259Z,42.15
2019-06-26T03:20:12.955Z,42.90
2019-06-26T03:22:42.317Z,45.08
2019-06-26T03:25:11.651Z,44.73
2019-06-26T03:27:40.991Z,45.00
2019-06-26T03:30:10.606Z,45.10
2019-06-26T03:32:39.952Z,41.28
2019-06-26T03:35:09.349Z,43.10
2019-06-26T03:37:38.688Z,44.18
2019-06-26T03:40:08.600Z,45.58
2019-06-26T03:42:38.172Z,43.17
2019-06-26T03:45:24.206Z,42.67
2019-06-26T03:47:39.431Z,44.20
2019-06-26T03:50:09.624Z,43.85
2019-06-26T03:52:39.079Z,43.15
2019-06-26T03:55:08.618Z,45.33
2019-06-26T03:57:37.987Z,43.52
2019-06-26T04:00:08.311Z,45.63
2019-06-26T04:02:37.640Z,42.58
2019-06-26T04:05:07.217Z,42.15
2019-06-26T04:07:37.624Z,42.67
2019-06-26T04:10:09.180Z,43.52
2019-06-26T04:12:38.764Z,42.78
2019-06-26T04:15:08.437Z,43.35
2019-06-26T04:17:37.993Z,43.87
2019-06-26T04:20:08.175Z,43.42
2019-06-26T04:22:37.516Z,44.63
2019-06-26T04:25:08.783Z,42.62
2019-06-26T04:27:38.111Z,44.13
2019-06-26T04:30:10.436Z,42.95
2019-06-26T04:32:40.044Z,42.73
2019-06-26T04:35:09.894Z,42.27
2019-06-26T04:37:39.303Z,43.60
2019-06-26T04:40:09.983Z,44.30
2019-06-26T04:42:39.680Z,44.53
2019-06-26T04:45:09.504Z,44.85
2019-06-26T04:47:39.110Z,47.75
2019-06-26T04:50:08.751Z,46.53
2019-06-26T04:52:38.128Z,47.60
2019-06-26T04:55:08.327Z,46.85
2019-06-26T04:57:37.702Z,48.70
2019-06-26T05:00:09.556Z,51.30
2019-06-26T05:02:38.975Z,54.73
2019-06-26T05:05:09.091Z,53.38
2019-06-26T05:07:38.461Z,58.90
2019-06-26T05:10:10.821Z,57.53
2019-06-26T05:12:40.618Z,56.70
2019-06-26T05:15:10.659Z,54.88
2019-06-26T05:17:40.010Z,59.35
2019-06-26T05:20:09.729Z,57.35
2019-06-26T05:22:39.211Z,56.37
2019-06-26T05:25:09.941Z,55.73
2019-06-26T05:27:39.241Z,54.35
2019-06-26T05:30:11.675Z,56.98
2019-06-26T05:32:40.994Z,57.35
2019-06-26T05:35:10.921Z,59.35
2019-06-26T05:37:40.493Z,61.48
2019-06-26T05:40:13.537Z,61.13
2019-06-26T05:42:42.902Z,63.95
2019-06-26T05:45:14.380Z,64.17
2019-06-26T05:47:44.678Z,66.77
2019-06-26T05:50:14.849Z,65.12
2019-06-26T05:52:44.229Z,66.25
2019-06-26T05:55:14.877Z,62.88
2019-06-26T05:57:48.357Z,68.83
2019-06-26T06:00:16.915Z,65.57
2019-06-26T06:02:46.303Z,66.50
2019-06-26T06:05:16.141Z,66.07
2019-06-26T06:07:45.699Z,67.78
2019-06-26T06:10:15.376Z,70.60
2019-06-26T06:12:44.788Z,70.05
2019-06-26T06:15:15.193Z,69.30
2019-06-26T06:17:44.538Z,73.50
2019-06-26T06:20:14.447Z,69.72
2019-06-26T06:22:43.786Z,69.95
2019-06-26T06:25:14.122Z,71.30
2019-06-26T06:27:43.455Z,72.35
2019-06-26T06:30:13.489Z,68.22
2019-06-26T06:32:42.778Z,69.97
2019-06-26T06:35:12.278Z,76.95
2019-06-26T06:37:41.616Z,73.35
2019-06-26T06:40:11.368Z,71.35
2019-06-26T06:42:40.708Z,73.17
2019-06-26T06:45:10.233Z,72.58
2019-06-26T06:47:39.596Z,72.42
2019-06-26T06:50:09.381Z,73.30
2019-06-26T06:52:38.971Z,75.42
2019-06-26T06:55:08.471Z,71.33
2019-06-26T06:57:37.836Z,70.75
2019-06-26T07:00:08.279Z,72.58
2019-06-26T07:02:37.867Z,70.12
2019-06-26T07:05:07.866Z,75.85
2019-06-26T07:07:37.278Z,70.57
2019-06-26T07:10:09.549Z,69.07
2019-06-26T07:12:39.160Z,73.35
2019-06-26T07:15:09.456Z,75.15
2019-06-26T07:17:38.801Z,70.57
2019-06-26T07:20:08.285Z,68.33
2019-06-26T07:22:37.924Z,70.90
2019-06-26T07:25:07.745Z,71.45
2019-06-26T07:27:37.083Z,70.00
2019-06-26T07:30:07.325Z,69.87
2019-06-26T07:32:36.665Z,69.90
2019-06-26T07:35:06.666Z,70.95
2019-06-26T07:37:37.043Z,71.67
2019-06-26T07:40:07.518Z,68.45
2019-06-26T07:42:36.825Z,68.70
2019-06-26T07:45:06.503Z,67.58
2019-06-26T07:47:43.155Z,65.75
2019-06-26T07:50:08.066Z,66.42
2019-06-26T07:52:37.610Z,72.55
2019-06-26T07:55:11.817Z,66.37
2019-06-26T07:57:39.588Z,68.35
2019-06-26T08:00:09.541Z,68.70
2019-06-26T08:02:38.872Z,69.30
2019-06-26T08:05:09.086Z,66.28
2019-06-26T08:07:39.695Z,67.25
2019-06-26T08:10:09.823Z,67.12
2019-06-26T08:12:39.186Z,69.15
2019-06-26T08:15:08.846Z,64.65
2019-06-26T08:17:38.235Z,64.67
2019-06-26T08:20:08.029Z,66.00
2019-06-26T08:22:37.368Z,63.35
2019-06-26T08:25:07.883Z,69.05
2019-06-26T08:27:38.022Z,65.67
2019-06-26T08:30:10.605Z,69.45
2019-06-26T08:32:39.971Z,67.92
2019-06-26T08:35:09.594Z,64.85
2019-06-26T08:37:39.287Z,65.28
2019-06-26T08:40:10.004Z,65.55
2019-06-26T08:42:39.374Z,64.65
2019-06-26T08:45:10.300Z,62.88
2019-06-26T08:47:39.917Z,67.60
2019-06-26T08:50:10.468Z,66.95
2019-06-26T08:52:39.886Z,65.45
2019-06-26T08:55:10.327Z,62.80
2019-06-26T08:57:40.020Z,62.70
2019-06-26T09:00:11.538Z,66.12
2019-06-26T09:02:41.208Z,65.12
2019-06-26T09:05:11.694Z,65.85
2019-06-26T09:07:41.047Z,64.20
2019-06-26T09:10:10.764Z,61.15
2019-06-26T09:12:40.101Z,62.20
2019-06-26T09:15:09.670Z,62.13
2019-06-26T09:17:39.025Z,64.22
2019-06-26T09:20:08.879Z,62.93
2019-06-26T09:22:38.252Z,60.17
2019-06-26T09:25:21.063Z,63.28
2019-06-26T09:27:40.136Z,61.88
2019-06-26T09:30:09.911Z,62.67
2019-06-26T09:32:39.640Z,64.17
2019-06-26T09:35:09.292Z,64.65
2019-06-26T09:37:38.690Z,58.87
2019-06-26T09:40:08.811Z,58.85
2019-06-26T09:42:38.522Z,57.65
2019-06-26T09:45:08.170Z,55.83
2019-06-26T09:47:38.630Z,56.75
2019-06-26T09:50:09.283Z,56.58
2019-06-26T09:52:38.991Z,54.10
2019-06-26T09:55:09.645Z,58.08
2019-06-26T09:57:39.017Z,55.55
2019-06-26T10:00:11.917Z,58.28
2019-06-26T10:02:41.351Z,61.75
2019-06-26T10:05:13.479Z,56.90
2019-06-26T10:07:42.839Z,56.02
2019-06-26T10:10:12.633Z,43.90
2019-06-26T10:12:42.001Z,59.83
2019-06-26T10:15:11.978Z,57.78
2019-06-26T10:17:41.631Z,56.58
2019-06-26T10:20:11.015Z,54.40
2019-06-26T10:22:40.461Z,57.60
2019-06-26T10:25:11.413Z,53.00
2019-06-26T10:27:41.454Z,54.55
2019-06-26T10:30:11.469Z,53.73
2019-06-26T10:32:41.246Z,57.70
2019-06-26T10:35:10.847Z,52.13
2019-06-26T10:37:40.562Z,51.58
2019-06-26T10:40:10.043Z,51.98
2019-06-26T10:42:39.628Z,51.05
2019-06-26T10:45:09.325Z,46.98
2019-06-26T10:47:39.937Z,44.75
2019-06-26T10:50:10.162Z,49.48
2019-06-26T10:52:39.653Z,44.33
2019-06-26T10:55:09.606Z,40.92
2019-06-26T10:57:38.978Z,40.45
2019-06-26T11:00:12.311Z,43.48
2019-06-26T11:02:42.262Z,34.20
2019-06-26T11:05:12.075Z,37.60
2019-06-26T11:07:41.427Z,37.05
2019-06-26T11:10:11.522Z,38.55
2019-06-26T11:12:40.894Z,35.28
2019-06-26T11:15:12.639Z,34.23
2019-06-26T11:17:42.539Z,35.60
2019-06-26T11:20:15.342Z,35.88
2019-06-26T11:22:45.167Z,32.00
2019-06-26T11:25:14.850Z,25.90
2019-06-26T11:27:44.234Z,35.08
2019-06-26T11:30:14.638Z,34.58
2019-06-26T11:32:44.012Z,28.42
2019-06-26T11:35:15.383Z,35.83
2019-06-26T11:37:45.229Z,30.88
2019-06-26T11:40:15.288Z,29.95
2019-06-26T11:42:44.651Z,25.60
2019-06-26T11:45:14.469Z,31.95
2019-06-26T11:47:46.026Z,27.85
2019-06-26T11:50:17.123Z,29.40
2019-06-26T11:52:46.485Z,34.08
2019-06-26T11:55:16.882Z,27.70
2019-06-26T11:57:46.431Z,18.80
2019-06-26T12:00:17.794Z,14.07
2019-06-26T12:02:47.166Z,20.35
2019-06-26T12:05:16.774Z,28.05
2019-06-26T12:07:46.156Z,32.38
2019-06-26T12:10:16.144Z,23.65
2019-06-26T12:12:45.775Z,28.75
2019-06-26T12:15:16.057Z,22.42
2019-06-26T12:17:45.656Z,29.15
2019-06-26T12:20:19.017Z,27.93
2019-06-26T12:22:46.512Z,26.25
2019-06-26T12:25:15.955Z,27.73
2019-06-26T12:27:45.301Z,21.77
2019-06-26T12:30:14.721Z,16.55
2019-06-26T12:33:01.477Z,21.75
2019-06-26T12:35:15.440Z,19.27
2019-06-26T12:37:44.774Z,21.00
2019-06-26T12:40:14.552Z,17.82
2019-06-26T12:42:43.885Z,22.90
2019-06-26T12:45:13.324Z,16.85
2019-06-26T12:47:42.772Z,14.78
2019-06-26T12:50:14.703Z,13.65
2019-06-26T12:52:44.048Z,13.50
2019-06-26T12:55:13.801Z,16.17
2019-06-26T12:57:43.173Z,18.90
2019-06-26T13:00:13.326Z,16.60
2019-06-26T13:02:42.731Z,11.18
2019-06-26T13:05:12.459Z,11.50
2019-06-26T13:07:41.790Z,14.40
2019-06-26T13:10:12.170Z,13.08
2019-06-26T13:12:41.503Z,12.20
2019-06-26T13:15:11.228Z,13.48
2019-06-26T13:17:40.576Z,12.37
2019-06-26T13:20:10.769Z,11.15
2019-06-26T13:22:40.167Z,11.68
2019-06-26T13:25:10.652Z,10.55
2019-06-26T13:27:40.124Z,11.10
2019-06-26T13:30:09.916Z,10.65
2019-06-26T13:32:40.091Z,11.10
2019-06-26T13:35:09.566Z,12.40
2019-06-26T13:37:38.937Z,10.28
2019-06-26T13:40:08.507Z,9.25
2019-06-26T13:42:37.837Z,9.85
2019-06-26T13:45:07.842Z,8.90
2019-06-26T13:47:37.168Z,9.75
2019-06-26T13:50:07.732Z,9.78
2019-06-26T13:52:37.076Z,10.95
2019-06-26T13:55:07.491Z,8.95
2019-06-26T13:57:36.822Z,9.60
2019-06-26T14:00:07.144Z,9.15
2019-06-26T14:02:36.471Z,8.20
2019-06-26T14:05:09.584Z,7.40
2019-06-26T14:07:39.214Z,7.00
2019-06-26T14:10:09.767Z,7.75
2019-06-26T14:12:39.152Z,6.62
2019-06-26T14:15:09.369Z,6.55
2019-06-26T14:17:38.969Z,7.85
2019-06-26T14:20:09.577Z,6.90
2019-06-26T14:22:39.328Z,6.87
2019-06-26T14:25:09.304Z,5.90
2019-06-26T14:27:39.663Z,6.10
2019-06-26T14:30:09.368Z,5.90
2019-06-26T14:32:38.973Z,6.17
2019-06-26T14:35:08.550Z,6.50
2019-06-26T14:37:37.890Z,6.65
2019-06-26T14:40:08.927Z,6.97
2019-06-26T14:42:38.263Z,6.55
2019-06-26T14:45:08.520Z,6.45
2019-06-26T14:47:37.884Z,5.90
2019-06-26T14:50:07.813Z,5.33
2019-06-26T14:52:37.415Z,6.60
2019-06-26T14:55:09.647Z,6.25
2019-06-26T14:57:38.977Z,5.58
2019-06-26T15:00:09.336Z,5.00
2019-06-26T15:02:38.651Z,4.85
2019-06-26T15:05:09.380Z,5.50
2019-06-26T15:07:38.979Z,5.62
2019-06-26T15:10:10.024Z,5.58
2019-06-26T15:12:40.354Z,6.15
2019-06-26T15:15:11.239Z,5.40
2019-06-26T15:17:40.594Z,5.53
2019-06-26T15:20:10.193Z,4.92
2019-06-26T15:22:39.549Z,6.50
2019-06-26T15:25:08.986Z,5.47
2019-06-26T15:27:38.321Z,6.42
2019-06-26T15:30:08.347Z,6.08
2019-06-26T15:32:37.923Z,6.30
2019-06-26T15:35:08.573Z,6.42
2019-06-26T15:37:38.345Z,5.92
2019-06-26T15:40:08.547Z,6.33
2019-06-26T15:42:38.206Z,6.67
2019-06-26T15:45:07.986Z,5.97
2019-06-26T15:47:37.348Z,5.92
2019-06-26T15:50:11.126Z,6.30
2019-06-26T15:52:41.485Z,5.53
2019-06-26T15:55:10.923Z,6.75
2019-06-26T15:57:40.294Z,6.80
2019-06-26T16:00:09.887Z,6.20
2019-06-26T16:02:39.262Z,6.20
2019-06-26T16:05:08.970Z,6.85
2019-06-26T16:07:38.318Z,6.70
2019-06-26T16:10:08.373Z,6.05
2019-06-26T16:12:37.700Z,6.67
2019-06-26T16:15:07.466Z,6.53
2019-06-26T16:17:50.543Z,6.80
2019-06-26T16:20:20.441Z,6.30
2019-06-26T16:22:49.773Z,5.90
2019-06-26T16:25:19.136Z,6.60
2019-06-26T16:28:04.301Z,6.17
2019-06-26T16:30:19.625Z,6.60
2019-06-26T16:32:50.315Z,6.12
2019-06-26T16:35:20.678Z,6.33
2019-06-26T16:37:50.245Z,6.35
2019-06-26T16:40:20.819Z,6.60
2019-06-26T16:42:50.161Z,6.50
2019-06-26T16:45:21.055Z,6.62
2019-06-26T16:47:50.424Z,6.55
2019-06-26T16:50:19.845Z,6.70
2019-06-26T16:52:50.230Z,6.53
2019-06-26T16:55:19.912Z,6.12
2019-06-26T16:57:49.515Z,7.28
2019-06-26T17:00:19.012Z,7.42
2019-06-26T17:02:48.381Z,7.12
2019-06-26T17:05:17.820Z,9.05
2019-06-26T17:07:47.171Z,7.95
2019-06-26T17:10:17.658Z,7.40
2019-06-26T17:12:47.019Z,7.17
2019-06-26T17:15:17.098Z,7.30
2019-06-26T17:17:46.707Z,7.05
2019-06-26T17:20:16.900Z,6.30
2019-06-26T17:22:46.243Z,7.05
2019-06-26T17:25:15.716Z,6.67
2019-06-26T17:27:45.062Z,6.85
2019-06-26T17:30:14.662Z,6.85
2019-06-26T17:32:44.102Z,6.97
2019-06-26T17:35:13.673Z,6.58
2019-06-26T17:37:43.298Z,6.67
2019-06-26T17:40:13.122Z,7.25
2019-06-26T17:42:42.459Z,6.33
2019-06-26T17:45:12.343Z,5.70
2019-06-26T17:47:41.699Z,5.90
2019-06-26T17:50:11.522Z,6.62
2019-06-26T17:52:41.118Z,6.15
2019-06-26T17:55:11.657Z,5.75
2019-06-26T17:57:41.016Z,5.95
2019-06-26T18:00:12.064Z,5.62
2019-06-26T18:02:41.465Z,6.12
2019-06-26T18:05:12.478Z,5.67
2019-06-26T18:07:41.803Z,5.50
2019-06-26T18:10:11.582Z,5.20
2019-06-26T18:12:40.912Z,4.70
2019-06-26T18:15:11.293Z,5.10
2019-06-26T18:17:40.614Z,4.83
2019-06-26T18:20:10.017Z,5.50
2019-06-26T18:22:39.333Z,5.00
2019-06-26T18:25:09.108Z,4.60
2019-06-26T18:27:38.713Z,4.58
2019-06-26T18:30:08.987Z,4.70
2019-06-26T18:32:38.319Z,4.55
2019-06-26T18:35:07.986Z,4.95
2019-06-26T18:37:37.309Z,4.58
2019-06-26T18:40:08.292Z,4.35
2019-06-26T18:42:37.871Z,4.30
2019-06-26T18:45:07.642Z,4.47
2019-06-26T18:47:37.010Z,4.17
2019-06-26T18:50:08.446Z,3.83
2019-06-26T18:52:37.801Z,4.20
2019-06-26T18:55:10.186Z,4.70
2019-06-26T18:57:39.541Z,4.50
2019-06-26T19:00:09.328Z,4.42
2019-06-26T19:02:38.732Z,4.33
2019-06-26T19:05:08.831Z,4.15
2019-06-26T19:07:38.153Z,4.30
2019-06-26T19:10:08.910Z,4.20
2019-06-26T19:12:38.597Z,4.12
2019-06-26T19:15:08.264Z,4.33
2019-06-26T19:17:37.826Z,3.65
2019-06-26T19:20:08.991Z,3.40
2019-06-26T19:22:38.321Z,3.20
2019-06-26T19:25:10.367Z,3.35
2019-06-26T19:27:39.971Z,2.98
2019-06-26T19:30:11.496Z,3.12
2019-06-26T19:32:40.811Z,3.00
2019-06-26T19:35:18.967Z,3.58
2019-06-26T19:37:41.981Z,2.95
2019-06-26T19:40:12.281Z,2.72
2019-06-26T19:42:41.644Z,2.58
2019-06-26T19:45:11.692Z,2.40
2019-06-26T19:47:41.061Z,2.15
2019-06-26T19:50:11.219Z,2.80
2019-06-26T19:52:40.901Z,2.40
2019-06-26T19:55:10.604Z,2.40
2019-06-26T19:57:39.942Z,2.60
2019-06-26T20:00:10.320Z,2.08
2019-06-26T20:02:39.776Z,1.95
2019-06-26T20:05:10.879Z,2.30
2019-06-26T20:07:40.201Z,2.00
2019-06-26T20:10:10.368Z,2.10
2019-06-26T20:12:39.963Z,2.17
2019-06-26T20:15:09.733Z,2.10
2019-06-26T20:17:39.063Z,1.92
2019-06-26T20:20:08.958Z,1.85
2019-06-26T20:22:38.479Z,1.90
2019-06-26T20:25:08.943Z,2.42
2019-06-26T20:27:39.803Z,1.87
2019-06-26T20:30:10.331Z,2.10
2019-06-26T20:32:41.043Z,1.82
2019-06-26T20:35:10.609Z,1.65
2019-06-26T20:37:40.303Z,2.10
2019-06-26T20:40:11.031Z,1.77
2019-06-26T20:42:40.518Z,1.90
2019-06-26T20:45:10.689Z,2.15
2019-06-26T20:47:40.075Z,1.90
2019-06-26T20:50:09.610Z,2.22
2019-06-26T20:52:39.206Z,2.10
2019-06-26T20:55:08.789Z,1.90
2019-06-26T20:57:38.122Z,2.35
2019-06-26T21:00:08.867Z,2.00
2019-06-26T21:02:39.863Z,2.20
2019-06-26T21:05:10.501Z,2.62
2019-06-26T21:07:40.433Z,2.45
2019-06-26T21:10:10.535Z,2.30
2019-06-26T21:12:40.214Z,2.42
2019-06-26T21:15:10.380Z,2.70
2019-06-26T21:17:39.750Z,1.98
2019-06-26T21:20:10.958Z,2.25
2019-06-26T21:22:40.302Z,2.60
2019-06-26T21:25:18.168Z,2.12
2019-06-26T21:27:41.293Z,2.77
2019-06-26T21:30:11.014Z,2.25
2019-06-26T21:32:40.854Z,2.10
2019-06-26T21:35:10.549Z,2.60
2019-06-26T21:37:40.238Z,2.40
2019-06-26T21:40:09.974Z,2.58
2019-06-26T21:42:39.323Z,2.87
2019-06-26T21:45:13.286Z,2.62
2019-06-26T21:47:42.641Z,2.40
2019-06-26T21:50:13.754Z,2.65
2019-06-26T21:52:43.228Z,2.42
2019-06-26T21:55:12.838Z,2.35
2019-06-26T21:57:59.995Z,2.15
2019-06-26T22:00:47.965Z,2.58
2019-06-26T22:03:35.420Z,2.25
2019-06-26T22:06:12.235Z,2.33
2019-06-26T22:08:43.523Z,2.58
2019-06-26T22:11:14.205Z,2.20
2019-06-26T22:13:43.989Z,2.17
2019-06-26T22:16:13.394Z,2.40
2019-06-26T22:18:42.952Z,2.05
2019-06-26T22:21:12.602Z,2.08
2019-06-26T22:23:42.197Z,2.70
2019-06-26T22:26:14.111Z,2.08
2019-06-26T22:28:42.590Z,1.95
2019-06-26T22:31:11.918Z,2.12
2019-06-26T22:33:41.662Z,1.87
2019-06-26T22:36:11.751Z,2.67
2019-06-26T22:38:41.118Z,1.95
2019-06-26T22:41:10.480Z,2.10
2019-06-26T22:43:40.043Z,2.30
2019-06-26T22:46:09.454Z,2.20
2019-06-26T22:48:38.989Z,2.10
2019-06-26T22:51:08.751Z,2.33
2019-06-26T22:53:38.086Z,2.33
2019-06-26T22:56:08.365Z,2.17
2019-06-26T22:58:37.883Z,2.40
2019-06-26T23:01:07.220Z,2.30
2019-06-26T23:03:36.690Z,2.25
2019-06-26T23:06:06.397Z,2.27
2019-06-26T23:08:35.747Z,2.33
2019-06-26T23:11:05.196Z,2.25
2019-06-26T23:13:34.540Z,2.35
2019-06-26T23:16:03.923Z,1.92
2019-06-26T23:18:33.497Z,1.98
2019-06-26T23:21:03.131Z,2.47
2019-06-26T23:23:32.471Z,2.20
2019-06-26T23:26:01.917Z,2.58
2019-06-26T23:28:31.242Z,2.27
2019-06-26T23:31:00.588Z,2.83
2019-06-26T23:33:30.195Z,2.80
2019-06-26T23:35:59.570Z,2.95
2019-06-26T23:38:28.904Z,2.67
2019-06-26T23:40:58.283Z,3.15
2019-06-26T23:43:27.861Z,3.17
2019-06-26T23:45:57.493Z,2.98
2019-06-26T23:48:27.797Z,3.40
2019-06-26T23:50:57.416Z,3.85
2019-06-26T23:53:26.758Z,2.75
2019-06-26T23:55:56.123Z,3.40
2019-06-26T23:58:25.493Z,2.87
